Time;durP1;ratioP1;P1;durP2;ratioP2;P2;SDS_P1;SDS_P2;PMS_P1;PMS_P2;Temp;Humidity;BMP_temperature;BMP_pressure;BME280_temperature;BME280_humidity;BME280_pressure;Samples;Min_cycle;Max_cycle;Signal;HPM_P1;HPM_P2
2023/07/08 00:00:20;;;;;;;14.35;11.70;;;;;;;18.77;100.00;95398.28;5023252;28;20060;-90
2023/07/08 00:02:46;;;;;;;13.82;12.40;;;;;;;18.77;100.00;95382.53;5034829;28;20029;-86
2023/07/08 00:05:16;;;;;;;16.20;12.07;;;;;;;18.85;100.00;95370.97;5040120;28;20521;-85
2023/07/08 00:07:42;;;;;;;17.05;14.13;;;;;;;18.80;100.00;95355.88;5039426;28;20029;-82
2023/07/08 00:10:26;;;;;;;15.80;14.30;;;;;;;18.81;100.00;95341.72;5039701;28;20028;-83
2023/07/08 00:12:55;;;;;;;15.45;14.13;;;;;;;18.84;100.00;95346.56;5039778;28;20032;-80
2023/07/08 00:15:22;;;;;;;16.73;15.17;;;;;;;18.73;100.00;95341.97;5037534;28;20109;-86
2023/07/08 00:17:48;;;;;;;16.95;15.55;;;;;;;18.86;100.00;95355.00;5022642;28;20143;-87
2023/07/08 00:20:18;;;;;;;17.30;15.73;;;;;;;18.77;100.00;95332.66;5040139;28;20131;-87
2023/07/08 00:22:46;;;;;;;18.63;16.83;;;;;;;18.72;100.00;95334.31;5038796;28;20036;-87
2023/07/08 00:25:13;;;;;;;19.08;17.30;;;;;;;18.65;100.00;95328.31;5041634;28;20029;-87
2023/07/08 00:27:39;;;;;;;19.30;17.23;;;;;;;18.67;100.00;95327.06;5020884;28;20036;-87
2023/07/08 00:30:29;;;;;;;20.45;18.65;;;;;;;18.58;100.00;95343.28;5039108;28;20040;-84
2023/07/08 00:32:55;;;;;;;20.52;18.63;;;;;;;18.50;100.00;95330.38;5027482;28;20033;-87
2023/07/08 00:35:36;;;;;;;22.80;20.70;;;;;;;18.46;100.00;95360.66;5021994;28;20021;-87
2023/07/08 00:38:12;;;;;;;23.38;21.15;;;;;;;18.38;100.00;95357.25;5023229;28;20024;-85
2023/07/08 00:40:38;;;;;;;24.23;20.70;;;;;;;18.28;100.00;95379.69;5037326;28;20220;-84
2023/07/08 00:43:05;;;;;;;23.73;21.13;;;;;;;18.20;100.00;95372.06;5039201;28;20110;-86
2023/07/08 00:45:51;;;;;;;24.27;22.02;;;;;;;18.15;100.00;95391.03;5020921;28;20021;-89
2023/07/08 00:48:29;;;;;;;23.52;21.35;;;;;;;18.16;100.00;95411.00;5039077;28;20032;-87
2023/07/08 00:50:54;;;;;;;25.23;22.52;;;;;;;18.08;100.00;95423.50;5038495;28;20029;-87
2023/07/08 00:53:24;;;;;;;24.63;22.33;;;;;;;18.08;100.00;95437.44;5037780;28;20031;-84
2023/07/08 00:55:52;;;;;;;26.00;23.10;;;;;;;18.08;100.00;95428.75;5038314;28;20029;-77
2023/07/08 00:58:19;;;;;;;24.92;22.75;;;;;;;18.06;100.00;95426.34;5038336;28;20053;-93
2023/07/08 01:00:44;;;;;;;25.30;22.92;;;;;;;18.10;100.00;95435.44;5038689;28;20025;-88
2023/07/08 01:03:10;;;;;;;25.42;22.92;;;;;;;18.03;100.00;95424.13;5037573;28;20128;-85
2023/07/08 01:05:38;;;;;;;24.17;21.90;;;;;;;18.08;100.00;95415.66;5037510;28;20072;-83
2023/07/08 01:08:05;;;;;;;25.13;22.80;;;;;;;18.00;100.00;95403.59;5037920;28;20032;-88
2023/07/08 01:10:49;;;;;;;25.65;22.98;;;;;;;17.92;100.00;95409.03;5036466;28;20386;-88
2023/07/08 01:13:16;;;;;;;24.45;22.25;;;;;;;17.94;100.00;95406.22;5038558;28;20465;-82
2023/07/08 01:15:45;;;;;;;25.50;22.13;;;;;;;17.94;100.00;95395.72;5036953;28;20570;-86
2023/07/08 01:18:16;;;;;;;25.77;23.25;;;;;;;17.90;100.00;95397.94;5040548;28;20040;-90
2023/07/08 01:20:42;;;;;;;25.40;22.98;;;;;;;17.87;100.00;95399.16;5036635;28;20090;-91
2023/07/08 01:23:10;;;;;;;26.08;23.58;;;;;;;17.89;100.00;95412.06;5038724;28;20117;-83
2023/07/08 01:25:35;;;;;;;24.33;22.13;;;;;;;17.84;100.00;95414.50;5037376;28;20595;-82
2023/07/08 01:28:01;;;;;;;26.13;23.35;;;;;;;17.74;100.00;95414.91;5038064;28;20060;-87
2023/07/08 01:30:27;;;;;;;25.63;22.92;;;;;;;17.79;100.00;95427.38;5037832;28;20064;-88
2023/07/08 01:32:57;;;;;;;26.38;22.92;;;;;;;17.78;100.00;95442.34;5036806;28;20068;-84
2023/07/08 01:35:23;;;;;;;24.65;22.40;;;;;;;17.70;100.00;95442.53;5038236;28;20052;-89
2023/07/08 01:37:54;;;;;;;25.13;22.60;;;;;;;17.71;100.00;95451.19;5036483;28;20508;-86
2023/07/08 01:40:27;;;;;;;25.05;22.85;;;;;;;17.68;100.00;95465.50;5037063;28;20029;-82
2023/07/08 01:42:53;;;;;;;24.33;21.98;;;;;;;17.66;100.00;95479.81;5036632;28;20060;-84
2023/07/08 01:45:20;;;;;;;24.80;22.58;;;;;;;17.56;100.00;95495.94;5037365;28;20029;-85
2023/07/08 01:47:58;;;;;;;26.38;23.90;;;;;;;17.52;100.00;95526.13;5014798;28;20029;-84
2023/07/08 01:50:25;;;;;;;23.63;21.63;;;;;;;17.43;100.00;95518.66;5029379;28;20029;-87
2023/07/08 01:52:52;;;;;;;25.33;22.73;;;;;;;17.49;100.00;95630.47;5018606;28;20033;-86
2023/07/08 01:55:23;;;;;;;24.83;22.35;;;;;;;17.49;100.00;95638.34;5029670;28;20036;-84
2023/07/08 01:57:51;;;;;;;24.15;21.88;;;;;;;17.50;100.00;95626.88;5037605;28;20021;-81
2023/07/08 02:00:16;;;;;;;23.45;21.30;;;;;;;17.45;100.00;95631.88;5037259;28;20033;-86
2023/07/08 02:02:42;;;;;;;25.55;23.10;;;;;;;17.48;100.00;95649.81;5036701;28;20086;-84
2023/07/08 02:05:08;;;;;;;26.02;23.60;;;;;;;17.38;100.00;95648.38;5038400;28;20107;-85
2023/07/08 02:07:33;;;;;;;24.50;22.05;;;;;;;17.38;100.00;95669.31;5036631;28;20255;-82
2023/07/08 02:09:59;;;;;;;25.58;23.27;;;;;;;17.29;100.00;95680.97;5037027;28;20394;-85
2023/07/08 02:12:24;;;;;;;23.42;21.33;;;;;;;17.27;100.00;95706.53;5037129;28;20025;-89
2023/07/08 02:14:50;;;;;;;23.42;21.08;;;;;;;17.30;100.00;95716.63;5038134;28;20033;-81
2023/07/08 02:17:16;;;;;;;24.10;22.08;;;;;;;17.21;100.00;95701.28;5038087;28;20028;-84
2023/07/08 02:19:43;;;;;;;22.45;20.60;;;;;;;17.20;100.00;95710.94;5041403;28;20037;-85
2023/07/08 02:22:09;;;;;;;23.58;20.88;;;;;;;17.24;100.00;95743.56;5040911;28;20040;-90
2023/07/08 02:24:35;;;;;;;24.10;22.00;;;;;;;17.18;100.00;95751.38;5039137;28;20098;-80
2023/07/08 02:27:00;;;;;;;23.20;21.20;;;;;;;17.22;100.00;95758.66;5042183;28;20025;-84
2023/07/08 02:29:26;;;;;;;24.13;21.92;;;;;;;17.15;100.00;95754.38;5040669;28;20697;-85
2023/07/08 02:31:51;;;;;;;23.05;20.83;;;;;;;17.25;100.00;95765.31;5041895;28;20043;-83
2023/07/08 02:34:17;;;;;;;23.08;21.08;;;;;;;17.19;100.00;95776.56;5036308;28;20043;-84
2023/07/08 02:36:43;;;;;;;23.70;21.60;;;;;;;17.22;100.00;95778.81;5040553;28;20029;-81
2023/07/08 02:39:10;;;;;;;24.35;21.85;;;;;;;17.12;100.00;95805.31;5022863;28;20087;-85
2023/07/08 02:41:35;;;;;;;23.63;21.52;;;;;;;17.10;100.00;95796.03;5038690;28;20914;-88
2023/07/08 02:44:01;;;;;;;24.17;22.08;;;;;;;17.11;100.00;95816.00;5042105;28;20044;-85
2023/07/08 02:46:27;;;;;;;24.52;22.17;;;;;;;17.14;100.00;95808.56;5039811;28;20033;-89
2023/07/08 02:48:52;;;;;;;24.23;21.83;;;;;;;17.20;100.00;95807.81;5042149;28;20025;-81
2023/07/08 02:51:18;;;;;;;23.67;21.52;;;;;;;17.13;100.00;95780.78;5040504;28;20252;-85
2023/07/08 02:53:43;;;;;;;24.42;21.98;;;;;;;17.17;100.00;95779.41;5040545;28;20094;-85
2023/07/08 02:56:09;;;;;;;24.27;21.98;;;;;;;17.15;100.00;95764.84;5040514;28;20025;-87
2023/07/08 02:58:35;;;;;;;25.10;22.80;;;;;;;17.18;100.00;95754.81;5041174;28;20032;-81
2023/07/08 03:01:00;;;;;;;24.02;21.85;;;;;;;17.23;100.00;95741.16;5041144;28;20021;-84
2023/07/08 03:03:30;;;;;;;24.27;22.20;;;;;;;17.15;100.00;95752.56;5039380;28;20036;-88
2023/07/08 03:06:00;;;;;;;24.15;22.02;;;;;;;17.17;100.00;95757.63;5040773;28;20033;-85
2023/07/08 03:08:27;;;;;;;24.92;22.63;;;;;;;17.13;100.00;95775.53;5038793;28;20025;-85
2023/07/08 03:10:59;;;;;;;24.65;22.38;;;;;;;17.08;100.00;95766.63;5023574;28;20048;-87
2023/07/08 03:13:25;;;;;;;24.83;22.48;;;;;;;17.09;100.00;95776.91;5022883;28;20570;-87
2023/07/08 03:15:50;;;;;;;22.77;20.77;;;;;;;17.26;100.00;95761.72;5038987;28;20025;-85
2023/07/08 03:18:16;;;;;;;22.40;20.50;;;;;;;17.33;100.00;95752.91;5039311;28;20063;-85
2023/07/08 03:20:44;;;;;;;23.83;21.50;;;;;;;17.35;100.00;95729.94;5037957;28;20818;-85
2023/07/08 03:23:11;;;;;;;23.57;21.37;;;;;;;17.38;100.00;95703.38;5023808;28;20028;-84
2023/07/08 03:25:37;;;;;;;22.50;20.50;;;;;;;17.51;100.00;95693.94;5039385;28;20108;-85
2023/07/08 03:28:06;;;;;;;23.23;21.20;;;;;;;17.65;100.00;95662.41;5040952;28;20174;-92
2023/07/08 03:30:32;;;;;;;23.65;18.35;;;;;;;17.83;100.00;95643.50;5038720;28;20482;-83
2023/07/08 03:32:58;;;;;;;20.02;17.98;;;;;;;17.77;100.00;95581.41;5022854;28;20425;-80
2023/07/08 03:35:24;;;;;;;20.23;18.25;;;;;;;18.16;100.00;95564.91;5039624;28;20032;-83
2023/07/08 03:37:51;;;;;;;16.88;15.40;;;;;;;19.00;100.00;95450.25;5029913;28;20128;-82
2023/07/08 03:40:16;;;;;;;15.57;14.15;;;;;;;19.48;100.00;95302.63;5033802;28;20616;-79
2023/07/08 03:42:42;;;;;;;16.92;15.43;;;;;;;18.69;100.00;95332.09;5038604;28;20207;-78
2023/07/08 03:45:08;;;;;;;17.25;15.73;;;;;;;18.37;100.00;95415.16;5039999;28;20029;-80
2023/07/08 03:47:33;;;;;;;15.90;14.70;;;;;;;18.54;100.00;95457.53;5038754;28;20029;-85
2023/07/08 03:49:59;;;;;;;16.67;15.07;;;;;;;18.32;100.00;95438.59;5040370;28;20520;-80
2023/07/08 03:52:24;;;;;;;15.52;13.88;;;;;;;18.30;100.00;95448.50;5037964;28;20032;-83
2023/07/08 03:54:50;;;;;;;16.52;14.77;;;;;;;18.42;100.00;95397.81;5038340;28;20418;-76
2023/07/08 03:57:15;;;;;;;15.55;14.32;;;;;;;18.50;100.00;95435.31;5039661;28;20788;-78
2023/07/08 03:59:41;;;;;;;17.08;15.52;;;;;;;18.26;100.00;95453.34;5031276;28;20463;-79
2023/07/08 04:02:10;;;;;;;18.02;16.33;;;;;;;18.18;100.00;95477.16;5040273;28;20029;-83
2023/07/08 04:04:37;;;;;;;16.67;15.35;;;;;;;18.74;100.00;95461.69;5037913;28;20060;-81
2023/07/08 04:07:06;;;;;;;15.02;13.82;;;;;;;19.03;100.00;95321.19;5027458;28;20122;-84
2023/07/08 04:09:31;;;;;;;16.23;14.93;;;;;;;18.52;100.00;95373.78;5038649;28;20029;-78
2023/07/08 04:11:58;;;;;;;14.90;13.68;;;;;;;19.72;100.00;95343.84;5039172;28;20087;-76
2023/07/08 04:14:24;;;;;;;15.80;13.98;;;;;;;19.07;100.00;95267.19;5039486;28;20043;-83
2023/07/08 04:16:58;;;;;;;14.00;12.68;;;;;;;19.42;100.00;95293.81;5036718;28;20521;-78
2023/07/08 04:19:24;;;;;;;14.27;12.88;;;;;;;21.26;100.00;95164.94;5038401;28;20029;-76
2023/07/08 04:21:49;;;;;;;11.88;10.68;;;;;;;21.75;100.00;95068.63;5037889;28;20036;-76
2023/07/08 04:24:16;;;;;;;12.40;10.88;;;;;;;21.54;100.00;95055.06;5039597;28;20086;-78
2023/07/08 04:26:46;;;;;;;12.32;11.05;;;;;;;22.30;100.00;95039.75;5037107;28;20408;-77
2023/07/08 04:29:16;;;;;;;10.45;9.75;;;;;;;22.59;100.00;95034.13;5039048;28;20024;-79
2023/07/08 04:31:42;;;;;;;9.95;9.15;;;;;;;23.26;100.00;95028.66;5039427;28;20405;-78
2023/07/08 04:34:08;;;;;;;10.95;9.85;;;;;;;23.46;100.00;95022.84;5037942;28;20025;-78
2023/07/08 04:36:34;;;;;;;9.27;8.40;;;;;;;23.98;100.00;95013.28;5039400;28;20479;-78
2023/07/08 04:39:00;;;;;;;8.95;8.25;;;;;;;24.51;100.00;95020.31;5037674;28;20085;-79
2023/07/08 04:41:27;;;;;;;9.48;8.55;;;;;;;25.02;100.00;95021.41;5037714;28;20427;-79
2023/07/08 04:43:53;;;;;;;10.13;8.25;;;;;;;23.73;100.00;95012.25;5036322;28;20028;-81
2023/07/08 04:46:34;;;;;;;8.98;8.05;;;;;;;25.24;100.00;95009.84;5038831;28;20045;-80
2023/07/08 04:49:01;;;;;;;9.07;8.27;;;;;;;25.15;100.00;95004.22;5037259;28;21013;-78
2023/07/08 04:51:26;;;;;;;9.05;8.05;;;;;;;25.86;100.00;94999.09;5036189;28;20032;-79
2023/07/08 04:53:52;;;;;;;8.60;8.00;;;;;;;25.99;100.00;95003.88;5039144;28;20614;-77
2023/07/08 04:56:17;;;;;;;7.57;6.90;;;;;;;26.36;98.42;94999.09;5035969;28;20024;-78
2023/07/08 04:58:43;;;;;;;8.02;7.43;;;;;;;26.68;95.68;95012.09;5039448;28;20068;-80
2023/07/08 05:01:08;;;;;;;8.48;7.72;;;;;;;27.13;93.75;95000.56;5036256;28;20071;-77
2023/07/08 05:03:34;;;;;;;8.65;7.90;;;;;;;27.48;90.72;95005.72;5038937;28;20094;-78
2023/07/08 05:05:59;;;;;;;7.63;7.00;;;;;;;27.99;84.93;95008.84;5037992;28;20029;-77
2023/07/08 05:08:25;;;;;;;7.63;6.97;;;;;;;27.78;89.41;95015.38;5037640;28;20429;-78
2023/07/08 05:10:51;;;;;;;8.70;8.00;;;;;;;25.38;100.00;95013.56;5038743;28;20037;-80
2023/07/08 05:13:16;;;;;;;8.85;8.15;;;;;;;23.78;100.00;95020.25;5037194;28;20115;-78
2023/07/08 05:15:41;;;;;;;14.32;9.80;;;;;;;23.34;100.00;95030.84;5039178;28;20033;-78
2023/07/08 05:18:07;;;;;;;9.93;8.98;;;;;;;26.25;100.00;95024.09;5036132;28;20029;-79
2023/07/08 05:20:34;;;;;;;8.27;7.53;;;;;;;28.12;90.63;95026.09;5035421;28;20041;-80
2023/07/08 05:23:00;;;;;;;28.30;8.93;;;;;;;28.96;82.13;95024.81;5026263;28;20997;-81
2023/07/08 05:25:27;;;;;;;7.38;6.68;;;;;;;29.68;76.88;95019.13;5029206;28;20025;-81
2023/07/08 05:27:52;;;;;;;;;;;;;;;26.58;92.14;95022.75;5031197;28;20032;-79
2023/07/08 05:30:18;;;;;;;8.70;7.72;;;;;;;25.13;100.00;95024.91;5031467;28;19940;-80
2023/07/08 05:32:44;;;;;;;11.63;8.80;;;;;;;23.77;100.00;95029.22;5032830;28;20072;-79
2023/07/08 05:35:09;;;;;;;9.63;8.20;;;;;;;26.46;100.00;95016.91;5033240;28;20029;-77
2023/07/08 05:37:35;;;;;;;9.35;8.55;;;;;;;25.22;100.00;95028.66;5031146;28;20029;-77
2023/07/08 05:40:04;;;;;;;8.48;7.45;;;;;;;27.47;93.96;95025.44;5024315;28;20482;-81
2023/07/08 05:42:29;;;;;;;7.95;7.32;;;;;;;24.08;100.00;95044.34;5028410;28;20049;-88
2023/07/08 05:44:55;;;;;;;8.68;8.07;;;;;;;23.53;100.00;95037.47;5029957;28;20377;-79
2023/07/08 05:47:21;;;;;;;10.10;9.20;;;;;;;22.66;100.00;95049.84;5034950;28;20037;-78
2023/07/08 05:49:47;;;;;;;9.77;9.07;;;;;;;22.12;100.00;95040.81;5035915;28;20032;-83
2023/07/08 05:52:13;;;;;;;12.07;10.18;;;;;;;21.80;100.00;95047.63;5037447;28;20407;-77
2023/07/08 05:54:40;;;;;;;10.05;9.25;;;;;;;21.41;100.00;95052.75;5039692;28;20036;-75
2023/07/08 05:57:07;;;;;;;10.13;9.30;;;;;;;22.19;100.00;95052.00;5035534;28;21159;-79
2023/07/08 05:59:34;;;;;;;10.23;9.30;;;;;;;21.64;100.00;95061.59;5028516;28;20170;-80
2023/07/08 06:01:59;;;;;;;10.02;9.18;;;;;;;24.10;100.00;95044.88;5023629;28;20572;-82
2023/07/08 06:04:26;;;;;;;9.70;8.90;;;;;;;22.70;100.00;95050.16;5035032;28;20033;-76
2023/07/08 06:06:51;;;;;;;10.40;9.50;;;;;;;22.17;100.00;95061.19;5034195;28;20037;-79
2023/07/08 06:09:17;;;;;;;10.48;9.57;;;;;;;21.92;100.00;95072.94;5036731;28;20048;-75
2023/07/08 06:11:43;;;;;;;9.52;8.88;;;;;;;21.71;100.00;95080.69;5040147;28;20931;-76
2023/07/08 06:14:09;;;;;;;10.20;9.30;;;;;;;21.51;100.00;95073.22;5040420;28;20029;-79
2023/07/08 06:16:35;;;;;;;10.55;9.77;;;;;;;21.28;100.00;95084.63;5038955;28;20071;-78
2023/07/08 06:19:00;;;;;;;10.18;9.20;;;;;;;21.25;100.00;95079.03;5039732;28;20612;-81
2023/07/08 06:21:26;;;;;;;11.07;9.80;;;;;;;21.81;100.00;95067.69;5038288;28;20029;-84
2023/07/08 06:23:51;;;;;;;11.55;10.45;;;;;;;22.42;100.00;95065.03;5029616;28;20507;-75
2023/07/08 06:26:17;;;;;;;11.73;9.15;;;;;;;22.37;100.00;95070.25;5034785;28;20029;-79
2023/07/08 06:28:42;;;;;;;10.48;9.68;;;;;;;22.09;100.00;95077.44;5028103;28;20045;-77
2023/07/08 06:31:08;;;;;;;10.80;9.85;;;;;;;21.79;100.00;95080.31;5039867;28;20020;-75
2023/07/08 06:33:33;;;;;;;12.38;10.00;;;;;;;21.69;100.00;95075.66;5041211;28;20029;-80
2023/07/08 06:35:59;;;;;;;12.63;10.05;;;;;;;21.59;100.00;95083.38;5037445;28;20044;-79
2023/07/08 06:38:24;;;;;;;11.65;10.45;;;;;;;21.58;100.00;95089.69;5038800;28;20692;-79
2023/07/08 06:40:50;;;;;;;10.13;9.10;;;;;;;21.78;100.00;95076.88;5036905;28;20037;-76
2023/07/08 06:43:15;;;;;;;9.65;8.95;;;;;;;21.91;100.00;95089.00;5033411;28;20109;-74
2023/07/08 06:45:41;;;;;;;10.23;9.38;;;;;;;22.31;100.00;95080.97;5030056;28;20476;-75
2023/07/08 06:48:06;;;;;;;9.82;8.82;;;;;;;22.17;100.00;95080.47;5029327;28;20026;-79
2023/07/08 06:50:32;;;;;;;11.90;8.60;;;;;;;22.06;100.00;95082.13;5035197;28;20025;-76
2023/07/08 06:52:58;;;;;;;10.73;9.43;;;;;;;21.89;100.00;95091.09;5026648;28;20045;-75
2023/07/08 06:55:24;;;;;;;10.27;9.45;;;;;;;21.75;100.00;95090.53;5030358;28;20029;-76
2023/07/08 06:57:50;;;;;;;9.95;9.15;;;;;;;21.70;100.00;95092.28;5025620;28;20036;-80
2023/07/08 07:00:15;;;;;;;11.00;9.15;;;;;;;21.68;100.00;95089.06;5035114;28;20029;-77
2023/07/08 07:02:41;;;;;;;15.15;9.98;;;;;;;21.71;100.00;95088.59;5030504;28;20025;-78
2023/07/08 07:05:07;;;;;;;10.32;9.45;;;;;;;21.60;100.00;95094.72;5022759;28;20040;-75
2023/07/08 07:07:34;;;;;;;10.98;10.07;;;;;;;21.70;100.00;95098.38;5025439;28;20068;-74
2023/07/08 07:09:59;;;;;;;10.98;10.05;;;;;;;22.07;100.00;95093.50;5031436;28;20053;-74
2023/07/08 07:12:25;;;;;;;10.32;9.43;;;;;;;22.34;100.00;95093.69;5025294;28;20099;-75
2023/07/08 07:14:52;;;;;;;9.77;8.88;;;;;;;23.01;100.00;95095.25;5027087;28;20025;-76
2023/07/08 07:17:19;;;;;;;10.35;9.32;;;;;;;23.58;100.00;95090.41;5035871;28;20040;-78
2023/07/08 07:19:45;;;;;;;9.52;8.07;;;;;;;23.34;100.00;95096.97;5023527;28;20029;-76
2023/07/08 07:22:10;;;;;;;13.40;8.93;;;;;;;23.28;100.00;95100.59;5024727;28;20025;-75
2023/07/08 07:24:36;;;;;;;10.02;7.82;;;;;;;23.06;100.00;95105.88;5023645;28;20152;-72
2023/07/08 07:27:01;;;;;;;10.35;8.07;;;;;;;22.81;100.00;95108.16;5023031;28;20495;-77
2023/07/08 07:29:27;;;;;;;8.07;7.50;;;;;;;22.92;100.00;95099.34;5028076;28;20027;-78
2023/07/08 07:31:52;;;;;;;8.02;7.32;;;;;;;23.19;100.00;95111.84;5026979;28;20032;-78
2023/07/08 07:34:18;;;;;;;8.88;7.95;;;;;;;23.38;100.00;95110.50;5028283;28;20038;-76
2023/07/08 07:36:43;;;;;;;8.05;7.35;;;;;;;23.85;100.00;95101.03;5025744;28;20446;-75
2023/07/08 07:39:09;;;;;;;7.85;7.32;;;;;;;23.49;100.00;95105.13;5027522;28;20048;-74
2023/07/08 07:41:34;;;;;;;8.20;7.60;;;;;;;23.37;100.00;95108.91;5025060;28;20410;-76
2023/07/08 07:44:00;;;;;;;8.35;7.65;;;;;;;23.20;100.00;95114.25;5019350;28;20025;-77
2023/07/08 07:46:25;;;;;;;7.75;7.15;;;;;;;24.08;100.00;95110.53;5030047;28;20652;-78
2023/07/08 07:48:51;;;;;;;7.15;6.40;;;;;;;25.07;100.00;95108.94;5028064;28;20769;-77
2023/07/08 07:51:17;;;;;;;7.63;7.03;;;;;;;24.90;100.00;95112.81;5026470;28;20043;-78
2023/07/08 07:53:42;;;;;;;10.27;6.93;;;;;;;24.72;100.00;95107.88;5027702;28;20115;-74
2023/07/08 07:56:08;;;;;;;7.63;6.85;;;;;;;24.16;100.00;95102.13;5028129;28;20337;-78
2023/07/08 07:58:34;;;;;;;7.05;6.50;;;;;;;24.66;100.00;95094.59;5029216;28;20556;-77
2023/07/08 08:01:00;;;;;;;7.30;6.70;;;;;;;24.02;100.00;95101.72;5034029;28;20021;-82
2023/07/08 08:03:26;;;;;;;10.30;7.25;;;;;;;24.35;100.00;95099.91;5022670;28;20049;-75
2023/07/08 08:05:51;;;;;;;11.18;6.85;;;;;;;24.88;98.31;95099.81;5025564;28;20041;-77
2023/07/08 08:08:16;;;;;;;7.03;6.50;;;;;;;24.72;100.00;95084.03;5031218;28;20328;-75
2023/07/08 08:10:43;;;;;;;7.47;6.53;;;;;;;24.99;99.85;95092.69;5034861;28;20555;-79
2023/07/08 08:13:09;;;;;;;8.02;6.50;;;;;;;25.18;98.35;95084.06;5034296;28;20119;-82
2023/07/08 08:15:35;;;;;;;9.73;6.50;;;;;;;25.44;98.31;95097.44;5027898;28;20171;-74
2023/07/08 08:18:01;;;;;;;8.57;6.50;;;;;;;25.21;100.00;95103.94;5024900;28;20521;-75
2023/07/08 08:20:28;;;;;;;7.53;6.90;;;;;;;25.15;99.89;95103.13;5023287;28;20100;-74
2023/07/08 08:22:53;;;;;;;12.30;6.95;;;;;;;24.73;100.00;95104.97;5029872;28;20048;-77
2023/07/08 08:25:20;;;;;;;8.82;7.45;;;;;;;24.54;99.64;95091.31;5025750;28;20031;-76
2023/07/08 08:27:46;;;;;;;7.43;6.82;;;;;;;24.76;98.74;95101.00;5026263;28;20044;-75
2023/07/08 08:30:12;;;;;;;8.38;6.70;;;;;;;24.37;98.75;95092.53;5033693;28;20483;-76
2023/07/08 08:32:38;;;;;;;7.13;6.47;;;;;;;24.46;100.00;95094.47;5028255;28;20032;-75
2023/07/08 08:35:04;;;;;;;9.43;6.72;;;;;;;24.27;100.00;95103.03;5031102;28;20025;-77
2023/07/08 08:37:29;;;;;;;7.75;6.82;;;;;;;24.25;100.00;95099.81;5023500;28;20178;-79
2023/07/08 08:39:55;;;;;;;7.53;6.82;;;;;;;24.50;99.51;95102.66;5029288;28;20124;-82
2023/07/08 08:42:26;;;;;;;7.22;6.53;;;;;;;24.90;98.84;95096.91;5025318;28;20534;-77
2023/07/08 08:44:59;;;;;;;7.15;6.18;;;;;;;25.41;95.39;95095.28;5022202;28;20037;-78
2023/07/08 08:47:45;;;;;;;6.80;5.55;;;;;;;25.53;95.43;95107.31;5021805;28;20036;-79
2023/07/08 08:50:27;;;;;;;6.68;6.00;;;;;;;26.19;97.56;95095.03;5012606;28;20041;-77
2023/07/08 08:52:55;;;;;;;13.35;6.32;;;;;;;26.02;95.91;95088.34;5020787;28;20029;-92
2023/07/08 08:55:21;;;;;;;9.05;5.53;;;;;;;26.01;94.68;95095.50;5020638;28;20029;-79
2023/07/08 08:57:58;;;;;;;6.80;6.15;;;;;;;25.99;92.96;95088.84;5017523;28;20241;-83
2023/07/08 09:00:44;;;;;;;8.00;6.15;;;;;;;25.86;95.39;95092.00;5021789;28;20036;-77
2023/07/08 09:03:14;;;;;;;6.60;6.00;;;;;;;26.12;98.37;95085.69;5014612;28;20048;-81
2023/07/08 09:05:43;;;;;;;6.47;5.88;;;;;;;25.92;99.27;95088.31;5003484;28;20025;-81
2023/07/08 09:08:29;;;;;;;7.30;6.80;;;;;;;25.73;97.78;95085.34;5019883;28;20514;-76
2023/07/08 09:11:01;;;;;;;6.28;5.72;;;;;;;25.89;95.78;95075.56;5027771;28;20522;-77
2023/07/08 09:13:31;;;;;;;7.57;6.15;;;;;;;25.93;96.19;95073.97;5027636;28;20560;-78
2023/07/08 09:16:26;;;;;;;9.40;6.18;;;;;;;26.03;94.78;95068.69;5034466;28;20035;-82
2023/07/08 09:18:54;;;;;;;7.20;5.47;;;;;;;26.12;95.30;95067.09;5033620;28;20036;-82
2023/07/08 09:21:26;;;;;;;6.28;5.72;;;;;;;26.05;94.76;95066.56;5032031;28;20029;-78
2023/07/08 09:23:54;;;;;;;6.07;5.55;;;;;;;25.99;92.70;95062.31;5023764;28;20029;-81
2023/07/08 09:26:22;;;;;;;6.43;5.82;;;;;;;25.91;90.39;95063.63;5031851;28;20036;-77
2023/07/08 09:28:48;;;;;;;5.97;5.50;;;;;;;26.54;93.97;95061.56;5034305;28;20048;-81
2023/07/08 09:31:28;;;;;;;6.72;6.07;;;;;;;26.10;92.19;95066.59;5038762;28;20049;-79
2023/07/08 09:34:08;;;;;;;6.72;6.15;;;;;;;26.23;94.13;95066.09;5037127;28;20021;-77
2023/07/08 09:36:34;;;;;;;9.98;6.53;;;;;;;26.04;88.99;95057.78;5037761;28;20029;-77
2023/07/08 09:39:00;;;;;;;6.82;6.20;;;;;;;26.51;96.25;95057.56;5036943;28;20040;-78
2023/07/08 09:41:34;;;;;;;7.43;6.50;;;;;;;26.48;93.59;95054.66;5035178;28;20086;-80
2023/07/08 09:44:26;;;;;;;7.50;6.00;;;;;;;26.55;93.95;95045.31;5039188;28;20021;-79
2023/07/08 09:46:53;;;;;;;7.70;7.00;;;;;;;25.96;92.48;95045.06;5036983;28;20112;-79
2023/07/08 09:49:32;;;;;;;6.70;6.20;;;;;;;25.76;89.71;95037.03;5038109;28;20063;-81
2023/07/08 09:51:57;;;;;;;7.65;6.95;;;;;;;26.13;94.72;95028.88;5037087;28;20025;-77
2023/07/08 09:54:24;;;;;;;7.72;6.50;;;;;;;26.34;93.10;95030.47;5036829;28;20051;-88
2023/07/08 09:57:00;;;;;;;6.53;5.97;;;;;;;26.23;93.94;95036.88;5036578;28;20036;-79
2023/07/08 09:59:36;;;;;;;6.55;6.03;;;;;;;26.27;94.51;95037.91;5035015;28;20090;-77
2023/07/08 10:02:12;;;;;;;6.38;5.82;;;;;;;26.23;92.81;95038.72;5036899;28;20037;-78
2023/07/08 10:04:37;;;;;;;6.28;5.65;;;;;;;26.19;95.42;95031.28;5037437;28;20407;-80
2023/07/08 10:07:10;;;;;;;7.63;6.18;;;;;;;26.36;92.92;95035.53;5035626;28;20025;-78
2023/07/08 10:09:36;;;;;;;7.18;6.40;;;;;;;26.34;94.59;95030.47;5038097;28;20569;-79
2023/07/08 10:12:02;;;;;;;6.65;6.07;;;;;;;26.12;91.02;95032.56;5036015;28;20024;-82
2023/07/08 10:14:40;;;;;;;5.47;5.07;;;;;;;26.05;90.56;95032.03;5036605;28;20029;-80
2023/07/08 10:17:05;;;;;;;6.35;5.18;;;;;;;26.10;90.97;95032.06;5032230;28;20025;-80
2023/07/08 10:19:31;;;;;;;6.47;5.97;;;;;;;26.03;91.61;95027.00;5035361;28;20421;-76
2023/07/08 10:22:02;;;;;;;6.97;5.40;;;;;;;26.13;89.13;95020.91;5034710;28;20029;-82
2023/07/08 10:24:52;;;;;;;6.30;5.80;;;;;;;26.21;89.46;95028.34;5035478;28;20033;-80
2023/07/08 10:27:26;;;;;;;6.57;5.53;;;;;;;26.12;89.33;95022.75;5032589;28;20069;-81
2023/07/08 10:30:07;;;;;;;5.40;5.00;;;;;;;26.12;89.45;95019.28;5029328;28;20060;-81
2023/07/08 10:33:00;;;;;;;6.32;5.70;;;;;;;26.40;90.75;95013.47;5034745;28;20033;-82
2023/07/08 10:35:33;;;;;;;7.13;6.15;;;;;;;26.34;88.07;95000.44;5033869;28;20041;-82
2023/07/08 10:38:34;;;;;;;6.18;5.68;;;;;;;26.28;86.06;95004.19;5025593;28;20108;-81
2023/07/08 10:41:25;;;;;;;7.30;5.70;;;;;;;26.60;92.96;95010.78;5024580;28;20051;-79
2023/07/08 10:43:56;;;;;;;5.57;5.18;;;;;;;26.40;86.95;94994.84;5032574;28;20167;-79
2023/07/08 10:46:30;;;;;;;6.13;5.53;;;;;;;26.46;85.97;94998.31;5033971;28;20106;-85
2023/07/08 10:49:04;;;;;;;5.28;4.88;;;;;;;26.55;87.70;95000.13;5039751;28;20055;-83
2023/07/08 10:51:57;;;;;;;5.50;5.15;;;;;;;26.54;88.48;95003.09;5037436;28;20041;-78
2023/07/08 10:54:37;;;;;;;6.20;5.43;;;;;;;26.41;89.14;94999.13;5030531;28;20090;-80
2023/07/08 10:57:16;;;;;;;5.55;5.15;;;;;;;26.57;89.51;94989.25;5029910;28;20029;-80
2023/07/08 11:00:00;;;;;;;6.57;5.20;;;;;;;26.59;84.67;94982.59;5029429;28;20041;-79
2023/07/08 11:02:31;;;;;;;5.63;5.13;;;;;;;26.76;84.98;94982.28;5031083;28;20048;-82
2023/07/08 11:04:59;;;;;;;6.20;5.68;;;;;;;26.64;83.37;94987.91;5026618;28;20043;-77
2023/07/08 11:07:45;;;;;;;6.15;5.55;;;;;;;26.92;86.42;94977.75;5030046;28;20032;-78
2023/07/08 11:10:13;;;;;;;5.47;4.97;;;;;;;27.15;85.88;94985.09;5023580;28;20045;-78
2023/07/08 11:12:45;;;;;;;6.53;6.00;;;;;;;27.04;86.22;94973.69;5021313;28;20036;-84
2023/07/08 11:15:31;;;;;;;8.30;5.13;;;;;;;26.97;85.67;94972.41;5030503;28;20036;-79
2023/07/08 11:18:10;;;;;;;5.88;5.43;;;;;;;26.90;85.84;94963.94;5027763;28;20150;-80
2023/07/08 11:20:45;;;;;;;6.20;5.70;;;;;;;26.91;85.55;94957.53;5030008;28;20029;-77
2023/07/08 11:23:23;;;;;;;6.50;5.57;;;;;;;26.99;84.47;94949.00;5039107;28;20897;-79
2023/07/08 11:25:50;;;;;;;6.28;5.18;;;;;;;27.01;85.79;94960.94;5037433;28;20516;-80